sensor_id;sensor_type;location;lat;lon;timestamp;P1;durP1;ratioP1;P2;durP2;ratioP2
13733;SDS011;43298;52.560;13.508;2023-06-22T00:01:58;15.10;;;14.30;;
13733;SDS011;43298;52.560;13.508;2023-06-22T00:04:24;14.10;;;13.35;;
13733;SDS011;43298;52.560;13.508;2023-06-22T00:06:50;15.68;;;14.98;;
13733;SDS011;43298;52.560;13.508;2023-06-22T00:09:16;18.02;;;16.73;;
13733;SDS011;43298;52.560;13.508;2023-06-22T00:11:42;12.68;;;12.07;;
13733;SDS011;43298;52.560;13.508;2023-06-22T00:14:07;13.73;;;12.90;;
13733;SDS011;43298;52.560;13.508;2023-06-22T00:16:33;11.80;;;11.20;;
13733;SDS011;43298;52.560;13.508;2023-06-22T00:18:59;16.20;;;15.20;;
13733;SDS011;43298;52.560;13.508;2023-06-22T00:21:27;21.13;;;19.90;;
13733;SDS011;43298;52.560;13.508;2023-06-22T00:23:52;16.20;;;15.35;;
13733;SDS011;43298;52.560;13.508;2023-06-22T00:26:19;15.00;;;14.20;;
13733;SDS011;43298;52.560;13.508;2023-06-22T00:28:45;13.35;;;12.73;;
13733;SDS011;43298;52.560;13.508;2023-06-22T00:31:12;17.17;;;16.33;;
13733;SDS011;43298;52.560;13.508;2023-06-22T00:33:38;16.92;;;16.10;;
13733;SDS011;43298;52.560;13.508;2023-06-22T00:36:04;16.60;;;15.73;;
13733;SDS011;43298;52.560;13.508;2023-06-22T00:38:31;19.33;;;17.23;;
13733;SDS011;43298;52.560;13.508;2023-06-22T00:40:57;15.85;;;14.95;;
13733;SDS011;43298;52.560;13.508;2023-06-22T00:43:22;18.27;;;17.42;;
13733;SDS011;43298;52.560;13.508;2023-06-22T00:45:48;14.63;;;13.82;;
13733;SDS011;43298;52.560;13.508;2023-06-22T00:48:14;15.23;;;14.43;;
13733;SDS011;43298;52.560;13.508;2023-06-22T00:50:40;15.45;;;14.45;;
13733;SDS011;43298;52.560;13.508;2023-06-22T00:53:07;17.30;;;16.50;;
13733;SDS011;43298;52.560;13.508;2023-06-22T00:55:43;13.02;;;12.13;;
13733;SDS011;43298;52.560;13.508;2023-06-22T00:58:16;10.82;;;10.23;;
13733;SDS011;43298;52.560;13.508;2023-06-22T01:00:46;13.77;;;13.07;;
13733;SDS011;43298;52.560;13.508;2023-06-22T01:03:13;10.77;;;10.18;;
13733;SDS011;43298;52.560;13.508;2023-06-22T01:05:39;12.45;;;11.65;;
13733;SDS011;43298;52.560;13.508;2023-06-22T01:11:06;11.07;;;10.48;;
13733;SDS011;43298;52.560;13.508;2023-06-22T01:13:57;12.95;;;12.35;;
13733;SDS011;43298;52.560;13.508;2023-06-22T01:16:32;12.65;;;11.90;;
13733;SDS011;43298;52.560;13.508;2023-06-22T01:19:01;13.60;;;12.70;;
13733;SDS011;43298;52.560;13.508;2023-06-22T01:21:53;12.48;;;11.88;;
13733;SDS011;43298;52.560;13.508;2023-06-22T01:24:30;11.73;;;11.13;;
13733;SDS011;43298;52.560;13.508;2023-06-22T01:29:49;12.57;;;11.88;;
13733;SDS011;43298;52.560;13.508;2023-06-22T01:32:17;12.02;;;11.35;;
13733;SDS011;43298;52.560;13.508;2023-06-22T01:34:44;13.55;;;12.85;;
13733;SDS011;43298;52.560;13.508;2023-06-22T01:37:12;11.90;;;11.30;;
13733;SDS011;43298;52.560;13.508;2023-06-22T01:39:40;12.07;;;11.38;;
13733;SDS011;43298;52.560;13.508;2023-06-22T01:42:06;13.52;;;12.77;;
13733;SDS011;43298;52.560;13.508;2023-06-22T01:44:32;13.63;;;12.85;;
13733;SDS011;43298;52.560;13.508;2023-06-22T01:46:59;12.43;;;11.88;;
13733;SDS011;43298;52.560;13.508;2023-06-22T01:49:26;12.80;;;12.10;;
13733;SDS011;43298;52.560;13.508;2023-06-22T01:51:52;12.63;;;11.93;;
13733;SDS011;43298;52.560;13.508;2023-06-22T01:54:19;13.85;;;13.00;;
13733;SDS011;43298;52.560;13.508;2023-06-22T01:56:45;13.75;;;13.05;;
13733;SDS011;43298;52.560;13.508;2023-06-22T01:59:32;12.57;;;11.90;;
13733;SDS011;43298;52.560;13.508;2023-06-22T02:02:06;12.57;;;11.98;;
13733;SDS011;43298;52.560;13.508;2023-06-22T02:04:39;12.77;;;12.07;;
13733;SDS011;43298;52.560;13.508;2023-06-22T02:07:22;12.70;;;12.00;;
13733;SDS011;43298;52.560;13.508;2023-06-22T02:09:53;13.48;;;12.65;;
13733;SDS011;43298;52.560;13.508;2023-06-22T02:12:22;12.25;;;11.48;;
13733;SDS011;43298;52.560;13.508;2023-06-22T02:14:50;12.60;;;11.90;;
13733;SDS011;43298;52.560;13.508;2023-06-22T02:17:17;13.45;;;12.63;;
13733;SDS011;43298;52.560;13.508;2023-06-22T02:19:44;12.05;;;11.30;;
13733;SDS011;43298;52.560;13.508;2023-06-22T02:22:10;13.13;;;12.38;;
13733;SDS011;43298;52.560;13.508;2023-06-22T02:24:39;13.98;;;13.27;;
13733;SDS011;43298;52.560;13.508;2023-06-22T02:27:13;12.20;;;11.55;;
13733;SDS011;43298;52.560;13.508;2023-06-22T02:29:48;12.15;;;11.43;;
13733;SDS011;43298;52.560;13.508;2023-06-22T02:32:18;11.48;;;10.98;;
13733;SDS011;43298;52.560;13.508;2023-06-22T02:34:47;14.57;;;13.68;;
13733;SDS011;43298;52.560;13.508;2023-06-22T02:37:19;13.20;;;12.27;;
13733;SDS011;43298;52.560;13.508;2023-06-22T02:39:54;12.50;;;11.77;;
13733;SDS011;43298;52.560;13.508;2023-06-22T02:42:26;20.05;;;11.90;;
13733;SDS011;43298;52.560;13.508;2023-06-22T02:44:58;11.50;;;10.93;;
13733;SDS011;43298;52.560;13.508;2023-06-22T02:47:24;10.30;;;9.60;;
13733;SDS011;43298;52.560;13.508;2023-06-22T02:49:50;14.68;;;13.70;;
13733;SDS011;43298;52.560;13.508;2023-06-22T02:52:16;11.45;;;10.82;;
13733;SDS011;43298;52.560;13.508;2023-06-22T02:54:42;12.52;;;11.82;;
13733;SDS011;43298;52.560;13.508;2023-06-22T02:57:10;10.85;;;10.10;;
13733;SDS011;43298;52.560;13.508;2023-06-22T02:59:38;13.30;;;12.57;;
13733;SDS011;43298;52.560;13.508;2023-06-22T03:02:07;13.65;;;12.85;;
13733;SDS011;43298;52.560;13.508;2023-06-22T03:04:34;13.15;;;12.25;;
13733;SDS011;43298;52.560;13.508;2023-06-22T03:07:01;13.38;;;12.68;;
13733;SDS011;43298;52.560;13.508;2023-06-22T03:09:30;11.90;;;11.05;;
13733;SDS011;43298;52.560;13.508;2023-06-22T03:11:56;12.00;;;11.23;;
13733;SDS011;43298;52.560;13.508;2023-06-22T03:14:22;12.85;;;12.10;;
13733;SDS011;43298;52.560;13.508;2023-06-22T03:16:48;13.95;;;12.70;;
13733;SDS011;43298;52.560;13.508;2023-06-22T03:19:13;13.10;;;12.27;;
13733;SDS011;43298;52.560;13.508;2023-06-22T03:21:39;13.05;;;11.75;;
13733;SDS011;43298;52.560;13.508;2023-06-22T03:24:06;12.43;;;11.38;;
13733;SDS011;43298;52.560;13.508;2023-06-22T03:26:32;12.80;;;12.00;;
13733;SDS011;43298;52.560;13.508;2023-06-22T03:28:59;14.35;;;13.38;;
13733;SDS011;43298;52.560;13.508;2023-06-22T03:31:25;14.48;;;13.65;;
13733;SDS011;43298;52.560;13.508;2023-06-22T03:33:51;13.57;;;12.68;;
13733;SDS011;43298;52.560;13.508;2023-06-22T03:36:17;15.57;;;14.48;;
13733;SDS011;43298;52.560;13.508;2023-06-22T03:38:47;15.52;;;14.45;;
13733;SDS011;43298;52.560;13.508;2023-06-22T03:41:14;14.57;;;13.68;;
13733;SDS011;43298;52.560;13.508;2023-06-22T03:43:41;15.38;;;14.13;;
13733;SDS011;43298;52.560;13.508;2023-06-22T03:46:07;14.10;;;13.32;;
13733;SDS011;43298;52.560;13.508;2023-06-22T03:48:33;13.57;;;12.77;;
13733;SDS011;43298;52.560;13.508;2023-06-22T03:50:59;14.75;;;13.95;;
13733;SDS011;43298;52.560;13.508;2023-06-22T03:53:26;16.63;;;15.73;;
13733;SDS011;43298;52.560;13.508;2023-06-22T03:55:52;15.57;;;14.70;;
13733;SDS011;43298;52.560;13.508;2023-06-22T03:58:19;16.77;;;15.82;;
13733;SDS011;43298;52.560;13.508;2023-06-22T04:00:46;15.05;;;14.10;;
13733;SDS011;43298;52.560;13.508;2023-06-22T04:03:14;14.05;;;13.25;;
13733;SDS011;43298;52.560;13.508;2023-06-22T04:05:40;15.55;;;14.65;;
13733;SDS011;43298;52.560;13.508;2023-06-22T04:08:07;14.43;;;13.63;;
13733;SDS011;43298;52.560;13.508;2023-06-22T04:10:33;14.77;;;13.98;;
13733;SDS011;43298;52.560;13.508;2023-06-22T04:12:59;13.10;;;12.40;;
13733;SDS011;43298;52.560;13.508;2023-06-22T04:15:26;12.88;;;11.93;;
13733;SDS011;43298;52.560;13.508;2023-06-22T04:17:51;14.07;;;13.35;;
13733;SDS011;43298;52.560;13.508;2023-06-22T04:20:19;16.25;;;15.15;;
13733;SDS011;43298;52.560;13.508;2023-06-22T04:22:54;14.02;;;13.15;;
13733;SDS011;43298;52.560;13.508;2023-06-22T04:25:22;14.70;;;13.88;;
13733;SDS011;43298;52.560;13.508;2023-06-22T04:27:50;12.68;;;12.07;;
13733;SDS011;43298;52.560;13.508;2023-06-22T04:30:19;12.95;;;12.18;;
13733;SDS011;43298;52.560;13.508;2023-06-22T04:32:48;13.80;;;13.00;;
13733;SDS011;43298;52.560;13.508;2023-06-22T04:35:21;14.07;;;13.43;;
13733;SDS011;43298;52.560;13.508;2023-06-22T04:37:49;15.15;;;14.35;;
13733;SDS011;43298;52.560;13.508;2023-06-22T04:40:20;14.82;;;13.95;;
13733;SDS011;43298;52.560;13.508;2023-06-22T04:42:47;13.48;;;12.80;;
13733;SDS011;43298;52.560;13.508;2023-06-22T04:45:18;19.30;;;18.40;;
13733;SDS011;43298;52.560;13.508;2023-06-22T04:47:46;15.52;;;14.82;;
13733;SDS011;43298;52.560;13.508;2023-06-22T04:50:12;21.70;;;20.50;;
13733;SDS011;43298;52.560;13.508;2023-06-22T04:52:39;15.95;;;15.15;;
13733;SDS011;43298;52.560;13.508;2023-06-22T04:55:06;12.90;;;12.30;;
13733;SDS011;43298;52.560;13.508;2023-06-22T04:57:33;13.35;;;12.75;;
13733;SDS011;43298;52.560;13.508;2023-06-22T05:00:00;15.15;;;14.43;;
13733;SDS011;43298;52.560;13.508;2023-06-22T05:02:40;18.80;;;17.85;;
13733;SDS011;43298;52.560;13.508;2023-06-22T05:05:07;20.98;;;19.92;;
13733;SDS011;43298;52.560;13.508;2023-06-22T05:07:38;13.23;;;12.63;;
13733;SDS011;43298;52.560;13.508;2023-06-22T05:10:08;15.60;;;14.80;;
13733;SDS011;43298;52.560;13.508;2023-06-22T05:12:37;21.15;;;20.20;;
13733;SDS011;43298;52.560;13.508;2023-06-22T05:15:06;16.52;;;15.73;;
13733;SDS011;43298;52.560;13.508;2023-06-22T05:17:34;13.95;;;13.35;;
13733;SDS011;43298;52.560;13.508;2023-06-22T05:20:01;14.90;;;14.30;;
13733;SDS011;43298;52.560;13.508;2023-06-22T05:22:31;11.98;;;11.40;;
13733;SDS011;43298;52.560;13.508;2023-06-22T05:24:58;13.63;;;12.85;;
13733;SDS011;43298;52.560;13.508;2023-06-22T05:27:25;16.15;;;15.15;;
13733;SDS011;43298;52.560;13.508;2023-06-22T05:29:52;12.05;;;11.45;;
13733;SDS011;43298;52.560;13.508;2023-06-22T05:32:20;20.42;;;19.33;;
13733;SDS011;43298;52.560;13.508;2023-06-22T05:34:49;16.00;;;15.30;;
13733;SDS011;43298;52.560;13.508;2023-06-22T05:37:17;22.45;;;21.50;;
13733;SDS011;43298;52.560;13.508;2023-06-22T05:39:46;19.65;;;18.75;;
13733;SDS011;43298;52.560;13.508;2023-06-22T05:42:13;17.20;;;16.30;;
13733;SDS011;43298;52.560;13.508;2023-06-22T05:44:40;16.65;;;15.35;;
13733;SDS011;43298;52.560;13.508;2023-06-22T05:47:08;14.38;;;13.70;;
13733;SDS011;43298;52.560;13.508;2023-06-22T05:49:34;15.85;;;15.15;;
13733;SDS011;43298;52.560;13.508;2023-06-22T05:52:00;22.98;;;21.88;;
13733;SDS011;43298;52.560;13.508;2023-06-22T05:54:28;15.40;;;14.70;;
13733;SDS011;43298;52.560;13.508;2023-06-22T05:56:54;14.85;;;14.25;;
13733;SDS011;43298;52.560;13.508;2023-06-22T05:59:20;16.52;;;15.73;;
13733;SDS011;43298;52.560;13.508;2023-06-22T06:01:46;15.45;;;14.65;;
13733;SDS011;43298;52.560;13.508;2023-06-22T06:04:18;19.48;;;18.55;;
13733;SDS011;43298;52.560;13.508;2023-06-22T06:06:44;42.50;;;40.53;;
13733;SDS011;43298;52.560;13.508;2023-06-22T06:09:12;29.50;;;28.20;;
13733;SDS011;43298;52.560;13.508;2023-06-22T06:11:41;34.55;;;32.90;;
13733;SDS011;43298;52.560;13.508;2023-06-22T06:14:07;90.20;;;85.20;;
13733;SDS011;43298;52.560;13.508;2023-06-22T06:16:33;49.22;;;47.13;;
13733;SDS011;43298;52.560;13.508;2023-06-22T06:18:59;40.05;;;38.30;;
13733;SDS011;43298;52.560;13.508;2023-06-22T06:21:25;35.42;;;33.20;;
13733;SDS011;43298;52.560;13.508;2023-06-22T06:23:51;21.85;;;20.65;;
13733;SDS011;43298;52.560;13.508;2023-06-22T06:26:18;29.27;;;27.85;;
13733;SDS011;43298;52.560;13.508;2023-06-22T06:28:53;40.45;;;38.65;;
13733;SDS011;43298;52.560;13.508;2023-06-22T06:31:20;55.72;;;53.28;;
13733;SDS011;43298;52.560;13.508;2023-06-22T06:33:46;46.58;;;44.50;;
13733;SDS011;43298;52.560;13.508;2023-06-22T06:36:13;16.08;;;15.30;;
13733;SDS011;43298;52.560;13.508;2023-06-22T06:38:41;16.58;;;15.88;;
13733;SDS011;43298;52.560;13.508;2023-06-22T06:41:07;19.20;;;18.08;;
13733;SDS011;43298;52.560;13.508;2023-06-22T06:43:32;30.83;;;29.25;;
13733;SDS011;43298;52.560;13.508;2023-06-22T06:45:58;40.13;;;38.38;;
13733;SDS011;43298;52.560;13.508;2023-06-22T06:48:24;30.40;;;29.00;;
13733;SDS011;43298;52.560;13.508;2023-06-22T06:50:50;28.48;;;27.27;;
13733;SDS011;43298;52.560;13.508;2023-06-22T06:53:16;29.33;;;28.08;;
13733;SDS011;43298;52.560;13.508;2023-06-22T06:55:41;26.95;;;25.80;;
13733;SDS011;43298;52.560;13.508;2023-06-22T06:58:10;26.70;;;25.50;;
13733;SDS011;43298;52.560;13.508;2023-06-22T07:00:38;28.25;;;27.00;;
13733;SDS011;43298;52.560;13.508;2023-06-22T07:03:04;27.23;;;25.92;;
13733;SDS011;43298;52.560;13.508;2023-06-22T07:05:31;25.05;;;23.95;;
13733;SDS011;43298;52.560;13.508;2023-06-22T07:07:57;27.25;;;25.92;;
13733;SDS011;43298;52.560;13.508;2023-06-22T07:10:24;26.80;;;25.65;;
13733;SDS011;43298;52.560;13.508;2023-06-22T07:12:49;28.13;;;26.85;;
13733;SDS011;43298;52.560;13.508;2023-06-22T07:15:15;28.30;;;27.05;;
13733;SDS011;43298;52.560;13.508;2023-06-22T07:17:41;33.63;;;32.20;;
13733;SDS011;43298;52.560;13.508;2023-06-22T07:20:07;37.25;;;35.65;;
13733;SDS011;43298;52.560;13.508;2023-06-22T07:22:35;37.03;;;35.25;;
13733;SDS011;43298;52.560;13.508;2023-06-22T07:25:02;36.67;;;35.10;;
13733;SDS011;43298;52.560;13.508;2023-06-22T07:27:44;32.33;;;30.92;;
13733;SDS011;43298;52.560;13.508;2023-06-22T07:30:32;35.58;;;34.08;;
13733;SDS011;43298;52.560;13.508;2023-06-22T07:32:58;35.67;;;34.13;;
13733;SDS011;43298;52.560;13.508;2023-06-22T07:35:29;36.28;;;34.72;;
13733;SDS011;43298;52.560;13.508;2023-06-22T07:37:56;38.63;;;37.03;;
13733;SDS011;43298;52.560;13.508;2023-06-22T07:40:22;39.17;;;37.55;;
13733;SDS011;43298;52.560;13.508;2023-06-22T07:42:47;36.33;;;34.63;;
13733;SDS011;43298;52.560;13.508;2023-06-22T07:45:13;38.38;;;36.70;;
13733;SDS011;43298;52.560;13.508;2023-06-22T07:47:39;34.10;;;32.60;;
13733;SDS011;43298;52.560;13.508;2023-06-22T07:50:05;34.83;;;33.22;;
13733;SDS011;43298;52.560;13.508;2023-06-22T07:52:31;34.42;;;32.92;;
13733;SDS011;43298;52.560;13.508;2023-06-22T07:54:58;30.58;;;29.27;;
13733;SDS011;43298;52.560;13.508;2023-06-22T07:57:23;29.63;;;28.40;;
13733;SDS011;43298;52.560;13.508;2023-06-22T07:59:58;24.23;;;23.20;;
13733;SDS011;43298;52.560;13.508;2023-06-22T08:02:25;24.50;;;23.50;;
13733;SDS011;43298;52.560;13.508;2023-06-22T08:04:51;28.33;;;27.13;;
13733;SDS011;43298;52.560;13.508;2023-06-22T08:07:19;27.20;;;26.02;;
13733;SDS011;43298;52.560;13.508;2023-06-22T08:09:48;24.83;;;23.73;;
13733;SDS011;43298;52.560;13.508;2023-06-22T08:12:15;25.45;;;24.25;;
13733;SDS011;43298;52.560;13.508;2023-06-22T08:14:43;25.13;;;24.00;;
13733;SDS011;43298;52.560;13.508;2023-06-22T08:17:11;27.85;;;26.65;;
13733;SDS011;43298;52.560;13.508;2023-06-22T08:19:39;24.15;;;23.10;;
13733;SDS011;43298;52.560;13.508;2023-06-22T08:22:06;22.80;;;21.80;;
13733;SDS011;43298;52.560;13.508;2023-06-22T08:24:32;25.63;;;24.42;;
13733;SDS011;43298;52.560;13.508;2023-06-22T08:26:59;23.88;;;22.80;;
13733;SDS011;43298;52.560;13.508;2023-06-22T08:29:26;23.33;;;22.27;;
13733;SDS011;43298;52.560;13.508;2023-06-22T08:31:52;24.00;;;23.00;;
13733;SDS011;43298;52.560;13.508;2023-06-22T08:34:19;23.67;;;22.65;;
13733;SDS011;43298;52.560;13.508;2023-06-22T08:36:52;23.20;;;22.08;;
13733;SDS011;43298;52.560;13.508;2023-06-22T08:39:19;24.73;;;23.73;;
13733;SDS011;43298;52.560;13.508;2023-06-22T08:41:46;22.98;;;21.88;;
13733;SDS011;43298;52.560;13.508;2023-06-22T08:44:13;24.15;;;23.05;;
13733;SDS011;43298;52.560;13.508;2023-06-22T08:46:42;24.23;;;23.15;;
13733;SDS011;43298;52.560;13.508;2023-06-22T08:49:09;22.98;;;21.92;;
13733;SDS011;43298;52.560;13.508;2023-06-22T08:51:36;24.60;;;23.50;;
13733;SDS011;43298;52.560;13.508;2023-06-22T08:54:01;24.80;;;23.40;;
13733;SDS011;43298;52.560;13.508;2023-06-22T08:56:28;23.98;;;22.98;;
13733;SDS011;43298;52.560;13.508;2023-06-22T08:58:53;23.05;;;22.05;;
13733;SDS011;43298;52.560;13.508;2023-06-22T09:01:19;24.73;;;23.65;;
13733;SDS011;43298;52.560;13.508;2023-06-22T09:03:45;23.70;;;22.70;;
13733;SDS011;43298;52.560;13.508;2023-06-22T09:06:19;52.55;;;50.08;;
13733;SDS011;43298;52.560;13.508;2023-06-22T09:08:46;24.45;;;23.20;;
13733;SDS011;43298;52.560;13.508;2023-06-22T09:11:13;22.30;;;21.30;;
13733;SDS011;43298;52.560;13.508;2023-06-22T09:13:39;23.27;;;22.23;;
13733;SDS011;43298;52.560;13.508;2023-06-22T09:16:05;20.48;;;19.58;;
13733;SDS011;43298;52.560;13.508;2023-06-22T09:18:31;23.45;;;22.25;;
13733;SDS011;43298;52.560;13.508;2023-06-22T09:20:59;26.15;;;25.00;;
13733;SDS011;43298;52.560;13.508;2023-06-22T09:23:25;28.38;;;27.08;;
13733;SDS011;43298;52.560;13.508;2023-06-22T09:25:50;26.10;;;24.83;;
13733;SDS011;43298;52.560;13.508;2023-06-22T09:28:17;37.90;;;36.25;;
13733;SDS011;43298;52.560;13.508;2023-06-22T09:30:43;25.50;;;24.40;;
13733;SDS011;43298;52.560;13.508;2023-06-22T09:33:09;26.92;;;25.70;;
13733;SDS011;43298;52.560;13.508;2023-06-22T09:35:36;30.17;;;28.77;;
13733;SDS011;43298;52.560;13.508;2023-06-22T09:38:02;27.13;;;25.92;;
13733;SDS011;43298;52.560;13.508;2023-06-22T09:40:29;26.27;;;25.08;;
13733;SDS011;43298;52.560;13.508;2023-06-22T09:43:00;26.63;;;25.52;;
13733;SDS011;43298;52.560;13.508;2023-06-22T09:45:27;23.80;;;22.80;;
13733;SDS011;43298;52.560;13.508;2023-06-22T09:47:54;24.58;;;23.48;;
13733;SDS011;43298;52.560;13.508;2023-06-22T09:50:24;23.55;;;22.55;;
13733;SDS011;43298;52.560;13.508;2023-06-22T09:52:49;24.50;;;23.40;;
13733;SDS011;43298;52.560;13.508;2023-06-22T09:55:19;24.55;;;23.40;;
13733;SDS011;43298;52.560;13.508;2023-06-22T09:57:46;24.67;;;23.60;;
13733;SDS011;43298;52.560;13.508;2023-06-22T10:00:12;25.20;;;24.00;;
13733;SDS011;43298;52.560;13.508;2023-06-22T10:02:41;24.50;;;23.50;;
13733;SDS011;43298;52.560;13.508;2023-06-22T10:05:08;23.10;;;22.10;;
13733;SDS011;43298;52.560;13.508;2023-06-22T10:07:33;24.48;;;23.40;;
13733;SDS011;43298;52.560;13.508;2023-06-22T10:09:59;21.17;;;20.27;;
13733;SDS011;43298;52.560;13.508;2023-06-22T10:14:52;24.27;;;23.27;;
13733;SDS011;43298;52.560;13.508;2023-06-22T10:17:18;25.08;;;23.98;;
13733;SDS011;43298;52.560;13.508;2023-06-22T10:19:44;22.63;;;21.63;;
13733;SDS011;43298;52.560;13.508;2023-06-22T10:22:10;24.35;;;22.85;;
13733;SDS011;43298;52.560;13.508;2023-06-22T10:24:35;21.33;;;20.42;;
13733;SDS011;43298;52.560;13.508;2023-06-22T10:27:03;22.40;;;21.40;;
13733;SDS011;43298;52.560;13.508;2023-06-22T10:29:29;21.77;;;20.88;;
13733;SDS011;43298;52.560;13.508;2023-06-22T10:31:55;21.77;;;20.88;;
13733;SDS011;43298;52.560;13.508;2023-06-22T10:34:21;20.15;;;19.25;;
13733;SDS011;43298;52.560;13.508;2023-06-22T10:36:46;22.48;;;21.55;;
13733;SDS011;43298;52.560;13.508;2023-06-22T10:39:13;22.95;;;21.33;;
13733;SDS011;43298;52.560;13.508;2023-06-22T10:41:40;23.55;;;22.48;;
13733;SDS011;43298;52.560;13.508;2023-06-22T10:44:06;26.75;;;25.63;;
13733;SDS011;43298;52.560;13.508;2023-06-22T10:46:31;26.27;;;25.17;;
13733;SDS011;43298;52.560;13.508;2023-06-22T10:48:57;23.75;;;22.67;;
13733;SDS011;43298;52.560;13.508;2023-06-22T10:51:24;25.73;;;24.52;;
13733;SDS011;43298;52.560;13.508;2023-06-22T10:53:53;24.80;;;23.75;;
13733;SDS011;43298;52.560;13.508;2023-06-22T10:56:19;21.48;;;20.58;;
13733;SDS011;43298;52.560;13.508;2023-06-22T10:58:45;23.40;;;22.40;;
13733;SDS011;43298;52.560;13.508;2023-06-22T11:01:11;22.67;;;21.67;;
13733;SDS011;43298;52.560;13.508;2023-06-22T11:03:36;25.38;;;24.27;;
13733;SDS011;43298;52.560;13.508;2023-06-22T11:06:03;24.70;;;23.60;;
13733;SDS011;43298;52.560;13.508;2023-06-22T11:08:29;24.13;;;23.10;;
13733;SDS011;43298;52.560;13.508;2023-06-22T11:10:57;25.65;;;24.17;;
13733;SDS011;43298;52.560;13.508;2023-06-22T11:13:24;24.83;;;23.83;;
13733;SDS011;43298;52.560;13.508;2023-06-22T11:15:50;25.27;;;24.17;;
13733;SDS011;43298;52.560;13.508;2023-06-22T11:18:17;24.73;;;23.65;;
13733;SDS011;43298;52.560;13.508;2023-06-22T11:20:43;25.05;;;23.95;;
13733;SDS011;43298;52.560;13.508;2023-06-22T11:23:12;26.35;;;25.25;;
13733;SDS011;43298;52.560;13.508;2023-06-22T11:25:39;24.85;;;23.77;;
13733;SDS011;43298;52.560;13.508;2023-06-22T11:28:07;26.25;;;25.15;;
13733;SDS011;43298;52.560;13.508;2023-06-22T11:30:34;25.65;;;24.55;;
13733;SDS011;43298;52.560;13.508;2023-06-22T11:33:01;24.65;;;23.65;;
13733;SDS011;43298;52.560;13.508;2023-06-22T11:35:28;26.25;;;25.05;;
13733;SDS011;43298;52.560;13.508;2023-06-22T11:37:55;26.40;;;25.25;;
13733;SDS011;43298;52.560;13.508;2023-06-22T11:40:21;24.77;;;23.67;;
13733;SDS011;43298;52.560;13.508;2023-06-22T11:42:48;24.52;;;23.42;;
13733;SDS011;43298;52.560;13.508;2023-06-22T11:45:16;28.45;;;27.15;;
13733;SDS011;43298;52.560;13.508;2023-06-22T11:47:45;28.02;;;26.83;;
13733;SDS011;43298;52.560;13.508;2023-06-22T11:50:14;26.42;;;25.23;;
13733;SDS011;43298;52.560;13.508;2023-06-22T11:52:41;27.80;;;26.60;;
13733;SDS011;43298;52.560;13.508;2023-06-22T11:55:08;25.98;;;24.88;;
13733;SDS011;43298;52.560;13.508;2023-06-22T11:57:36;25.58;;;24.48;;
13733;SDS011;43298;52.560;13.508;2023-06-22T12:00:04;29.63;;;28.33;;
13733;SDS011;43298;52.560;13.508;2023-06-22T12:02:41;26.92;;;25.73;;
13733;SDS011;43298;52.560;13.508;2023-06-22T12:05:09;27.25;;;26.08;;
13733;SDS011;43298;52.560;13.508;2023-06-22T12:07:37;26.85;;;25.75;;
13733;SDS011;43298;52.560;13.508;2023-06-22T12:10:04;24.98;;;23.88;;
13733;SDS011;43298;52.560;13.508;2023-06-22T12:12:33;26.10;;;24.98;;
13733;SDS011;43298;52.560;13.508;2023-06-22T12:14:58;24.42;;;23.33;;
13733;SDS011;43298;52.560;13.508;2023-06-22T12:17:28;26.65;;;25.45;;
13733;SDS011;43298;52.560;13.508;2023-06-22T12:19:55;26.88;;;25.77;;
13733;SDS011;43298;52.560;13.508;2023-06-22T12:22:21;29.05;;;27.75;;
13733;SDS011;43298;52.560;13.508;2023-06-22T12:24:48;26.52;;;25.42;;
13733;SDS011;43298;52.560;13.508;2023-06-22T12:27:16;26.92;;;25.83;;
13733;SDS011;43298;52.560;13.508;2023-06-22T12:29:43;26.48;;;25.38;;
13733;SDS011;43298;52.560;13.508;2023-06-22T12:32:13;25.75;;;24.55;;
13733;SDS011;43298;52.560;13.508;2023-06-22T12:34:41;24.05;;;22.95;;
13733;SDS011;43298;52.560;13.508;2023-06-22T12:37:09;23.65;;;22.65;;
13733;SDS011;43298;52.560;13.508;2023-06-22T12:39:36;25.75;;;24.63;;
13733;SDS011;43298;52.560;13.508;2023-06-22T12:42:05;23.50;;;22.50;;
13733;SDS011;43298;52.560;13.508;2023-06-22T12:44:34;24.67;;;23.58;;
13733;SDS011;43298;52.560;13.508;2023-06-22T12:47:02;25.05;;;23.98;;
13733;SDS011;43298;52.560;13.508;2023-06-22T12:49:30;23.70;;;22.70;;
13733;SDS011;43298;52.560;13.508;2023-06-22T12:51:57;25.02;;;23.92;;
13733;SDS011;43298;52.560;13.508;2023-06-22T12:54:24;26.13;;;25.02;;
13733;SDS011;43298;52.560;13.508;2023-06-22T12:56:51;25.52;;;24.40;;
13733;SDS011;43298;52.560;13.508;2023-06-22T12:59:18;27.55;;;26.33;;
13733;SDS011;43298;52.560;13.508;2023-06-22T13:01:45;25.15;;;24.05;;
13733;SDS011;43298;52.560;13.508;2023-06-22T13:04:12;24.80;;;23.80;;
13733;SDS011;43298;52.560;13.508;2023-06-22T13:06:43;26.45;;;25.35;;
13733;SDS011;43298;52.560;13.508;2023-06-22T13:09:14;26.83;;;25.63;;
13733;SDS011;43298;52.560;13.508;2023-06-22T13:11:44;25.42;;;24.35;;
13733;SDS011;43298;52.560;13.508;2023-06-22T13:14:13;25.92;;;24.77;;
13733;SDS011;43298;52.560;13.508;2023-06-22T13:16:41;25.50;;;24.40;;
13733;SDS011;43298;52.560;13.508;2023-06-22T13:19:08;24.52;;;23.38;;
13733;SDS011;43298;52.560;13.508;2023-06-22T13:21:34;27.33;;;26.13;;
13733;SDS011;43298;52.560;13.508;2023-06-22T13:24:01;27.13;;;25.90;;
13733;SDS011;43298;52.560;13.508;2023-06-22T13:26:28;26.00;;;24.90;;
13733;SDS011;43298;52.560;13.508;2023-06-22T13:28:55;26.27;;;25.05;;
13733;SDS011;43298;52.560;13.508;2023-06-22T13:31:34;26.27;;;25.05;;
13733;SDS011;43298;52.560;13.508;2023-06-22T13:34:11;25.92;;;24.83;;
13733;SDS011;43298;52.560;13.508;2023-06-22T13:36:50;26.77;;;25.58;;
13733;SDS011;43298;52.560;13.508;2023-06-22T13:39:34;26.95;;;25.75;;
13733;SDS011;43298;52.560;13.508;2023-06-22T13:42:04;25.23;;;24.13;;
13733;SDS011;43298;52.560;13.508;2023-06-22T13:44:34;27.58;;;26.38;;
13733;SDS011;43298;52.560;13.508;2023-06-22T13:47:00;26.95;;;25.75;;
13733;SDS011;43298;52.560;13.508;2023-06-22T13:49:26;27.50;;;26.30;;
13733;SDS011;43298;52.560;13.508;2023-06-22T13:51:53;25.13;;;24.02;;
13733;SDS011;43298;52.560;13.508;2023-06-22T13:54:19;26.75;;;25.55;;
13733;SDS011;43298;52.560;13.508;2023-06-22T13:56:46;27.23;;;26.02;;
13733;SDS011;43298;52.560;13.508;2023-06-22T13:59:13;26.73;;;25.52;;
13733;SDS011;43298;52.560;13.508;2023-06-22T14:01:40;27.60;;;26.40;;
13733;SDS011;43298;52.560;13.508;2023-06-22T14:04:08;26.02;;;24.88;;
13733;SDS011;43298;52.560;13.508;2023-06-22T14:06:38;25.13;;;23.90;;
13733;SDS011;43298;52.560;13.508;2023-06-22T14:09:05;28.77;;;27.55;;
13733;SDS011;43298;52.560;13.508;2023-06-22T14:11:32;26.70;;;25.52;;
13733;SDS011;43298;52.560;13.508;2023-06-22T14:14:00;29.90;;;28.17;;
13733;SDS011;43298;52.560;13.508;2023-06-22T14:16:29;27.70;;;26.50;;
13733;SDS011;43298;52.560;13.508;2023-06-22T14:18:59;25.92;;;24.73;;
13733;SDS011;43298;52.560;13.508;2023-06-22T14:21:32;29.90;;;28.60;;